Time;durP1;ratioP1;P1;durP2;ratioP2;P2;SDS_P1;SDS_P2;PMS_P1;PMS_P2;Temp;Humidity;BMP_temperature;BMP_pressure;BME280_temperature;BME280_humidity;BME280_pressure;Samples;Min_cycle;Max_cycle;Signal;HPM_P1;HPM_P2
2023/08/23 00:01:48;;;;;;;1.17;1.07;;;;;;;25.99;53.84;95516.78;5111972;28;20915;-54
2023/08/23 00:04:16;;;;;;;1.03;1.03;;;;;;;26.05;54.21;95511.84;5112204;28;20440;-54
2023/08/23 00:06:46;;;;;;;0.90;0.90;;;;;;;26.11;53.78;95508.47;5111652;28;20444;-55
2023/08/23 00:09:17;;;;;;;0.60;0.60;;;;;;;26.00;54.31;95515.66;5112450;28;20425;-54
2023/08/23 00:11:46;;;;;;;1.90;1.80;;;;;;;26.04;54.59;95510.28;5112069;28;20843;-55
2023/08/23 00:14:16;;;;;;;1.33;1.23;;;;;;;25.99;54.49;95511.38;5095000;28;20861;-54
2023/08/23 00:16:45;;;;;;;4.73;1.03;;;;;;;26.03;54.13;95509.50;5102474;28;21148;-54
2023/08/23 00:19:14;;;;;;;6.70;2.30;;;;;;;25.26;54.73;95403.00;5093939;28;20440;-54
2023/08/23 00:21:44;;;;;;;1.47;1.37;;;;;;;25.78;54.61;95510.97;5091600;28;20552;-55
2023/08/23 00:24:12;;;;;;;1.10;1.00;;;;;;;25.67;55.34;95513.53;5110059;28;20850;-55
2023/08/23 00:26:42;;;;;;;3.17;0.80;;;;;;;25.73;54.84;95503.94;5111833;28;20846;-55
2023/08/23 00:29:10;;;;;;;1.10;1.07;;;;;;;25.79;54.84;95496.28;5109941;28;20531;-55
2023/08/23 00:31:38;;;;;;;0.87;0.87;;;;;;;25.63;54.97;95501.00;5111821;28;20945;-55
2023/08/23 00:34:06;;;;;;;1.70;1.00;;;;;;;25.67;55.20;95499.97;5111790;28;20439;-54
2023/08/23 00:36:35;;;;;;;1.27;1.17;;;;;;;25.64;55.10;95505.31;5111267;28;20497;-53
2023/08/23 00:39:03;;;;;;;1.27;1.17;;;;;;;25.78;55.08;95506.34;5098589;28;20935;-54
2023/08/23 00:41:32;;;;;;;0.87;0.70;;;;;;;25.88;54.79;95505.75;5110723;28;20929;-54
2023/08/23 00:44:03;;;;;;;2.20;0.47;;;;;;;26.23;54.08;95505.59;5114346;28;20440;-54
2023/08/23 00:46:31;;;;;;;0.50;0.40;;;;;;;26.41;53.11;95500.44;5114843;27;20992;-54
2023/08/23 00:49:00;;;;;;;1.10;1.00;;;;;;;26.31;53.85;95506.50;5106878;28;20468;-54
2023/08/23 00:51:28;;;;;;;1.00;0.80;;;;;;;26.14;53.91;95509.69;5111775;28;20447;-54
2023/08/23 00:53:58;;;;;;;4.27;0.70;;;;;;;26.03;54.48;95495.13;5115958;28;20464;-54
2023/08/23 00:56:26;;;;;;;0.50;0.47;;;;;;;26.16;54.25;95505.47;5115939;28;20428;-54
2023/08/23 00:58:56;;;;;;;1.03;1.03;;;;;;;26.05;54.51;95496.34;5115618;28;20443;-55
2023/08/23 01:01:26;;;;;;;0.83;0.60;;;;;;;26.16;54.59;95507.41;5115767;28;20443;-55
2023/08/23 01:03:58;;;;;;;0.70;0.63;;;;;;;25.94;54.70;95505.44;5115691;28;20478;-55
2023/08/23 01:06:47;;;;;;;4.97;0.97;;;;;;;26.07;54.98;95502.19;5115942;28;20427;-55
2023/08/23 01:10:02;;;;;;;1.30;0.70;;;;;;;26.11;54.58;95508.47;5115481;28;20522;-55
2023/08/23 01:13:15;;;;;;;0.70;0.70;;;;;;;26.22;54.60;95508.66;5115316;28;21013;-54
2023/08/23 01:15:46;;;;;;;0.80;0.80;;;;;;;26.45;54.18;95517.56;5115492;27;20428;-54
2023/08/23 01:18:18;;;;;;;0.50;0.30;;;;;;;26.43;54.35;95509.81;5115461;28;20479;-55
2023/08/23 01:20:49;;;;;;;0.50;0.40;;;;;;;26.00;53.77;95423.31;5115298;28;20471;-54
2023/08/23 01:23:20;;;;;;;0.50;0.30;;;;;;;26.68;53.75;95514.81;5115281;28;20532;-54
2023/08/23 01:25:51;;;;;;;0.90;0.47;;;;;;;26.68;52.76;95509.38;5115197;28;20444;-55
2023/08/23 01:28:24;;;;;;;0.50;0.40;;;;;;;26.45;54.06;95490.41;5115363;28;20995;-55
2023/08/23 01:30:52;;;;;;;1.00;0.40;;;;;;;26.47;53.76;95499.75;5073962;28;20441;-55
2023/08/23 01:34:03;;;;;;;0.50;0.30;;;;;;;26.41;54.71;95514.03;5074845;28;20429;-55
2023/08/23 01:36:34;;;;;;;0.40;0.33;;;;;;;26.40;54.74;95515.16;5074672;28;20498;-55
2023/08/23 01:39:23;;;;;;;0.60;0.57;;;;;;;26.03;55.18;95509.50;5089867;28;20466;-55
2023/08/23 01:57:45;;;;;;;0.87;0.67;;;;;;;24.45;54.95;95293.78;5093647;28;20443;-55
2023/08/23 02:00:14;;;;;;;0.80;0.80;;;;;;;23.10;55.20;95061.28;5094038;28;20853;-55
2023/08/23 02:02:43;;;;;;;0.47;0.40;;;;;;;24.39;54.74;95202.31;5092760;28;20483;-55
2023/08/23 02:05:11;;;;;;;0.60;0.50;;;;;;;24.24;54.61;95167.97;5093640;28;20463;-55
2023/08/23 02:07:40;;;;;;;0.40;0.30;;;;;;;22.90;54.87;94963.19;5093419;28;20444;-55
2023/08/23 02:10:09;;;;;;;0.87;0.80;;;;;;;26.04;54.14;95459.44;5093957;28;20796;-55
2023/08/23 02:13:16;;;;;;;0.73;0.50;;;;;;;26.39;55.16;95503.50;5093520;28;20476;-55
2023/08/23 02:15:46;;;;;;;0.87;0.80;;;;;;;24.49;55.06;95228.81;5092800;28;20960;-55
2023/08/23 02:18:14;;;;;;;0.53;0.53;;;;;;;22.36;54.79;94987.47;5093966;28;20440;-55
2023/08/23 02:20:45;;;;;;;0.73;0.73;;;;;;;23.96;55.38;95190.63;5092828;28;20445;-55
2023/08/23 02:23:13;;;;;;;1.37;0.60;;;;;;;25.31;55.47;95375.59;5093554;28;20859;-55
2023/08/23 02:25:42;;;;;;;0.50;0.40;;;;;;;23.04;56.11;95016.75;5093368;28;20428;-55
2023/08/23 02:28:10;;;;;;;0.50;0.40;;;;;;;24.36;56.01;95224.72;5093223;28;20464;-55
2023/08/23 02:30:39;;;;;;;0.50;0.40;;;;;;;24.44;55.10;95265.13;5093268;28;20437;-55
2023/08/23 02:33:09;;;;;;;0.40;0.30;;;;;;;23.88;55.66;95194.34;5092937;28;20444;-55
2023/08/23 02:35:41;;;;;;;0.50;0.30;;;;;;;23.78;55.49;95175.97;5092372;28;20437;-55
2023/08/23 02:38:10;;;;;;;0.50;0.50;;;;;;;24.12;56.11;95233.91;5093349;28;20440;-55
2023/08/23 02:40:41;;;;;;;1.47;0.60;;;;;;;25.30;56.65;95432.94;5093498;28;20803;-55
2023/08/23 02:43:10;;;;;;;0.50;0.40;;;;;;;24.42;54.77;95288.28;5092460;28;20476;-56
2023/08/23 02:45:40;;;;;;;1.17;0.83;;;;;;;23.84;56.11;95171.84;5092925;28;20987;-56
2023/08/23 02:48:10;;;;;;;0.50;0.40;;;;;;;24.11;56.21;95242.41;5092922;28;20440;-55
2023/08/23 02:50:39;;;;;;;0.50;0.37;;;;;;;24.13;56.12;95276.13;5093006;28;20507;-55
2023/08/23 02:53:07;;;;;;;0.93;0.60;;;;;;;23.91;55.70;95155.72;5092452;28;20494;-56
2023/08/23 02:55:37;;;;;;;0.57;0.37;;;;;;;24.25;56.11;95240.75;5092562;28;20554;-56
2023/08/23 02:58:06;;;;;;;1.00;0.83;;;;;;;25.46;56.79;95410.00;5092585;28;20908;-55
2023/08/23 03:00:35;;;;;;;0.60;0.53;;;;;;;25.99;56.44;95511.38;5092743;28;20437;-56
2023/08/23 03:03:03;;;;;;;0.40;0.30;;;;;;;25.98;57.05;95509.03;5092678;28;20488;-55
2023/08/23 03:05:33;;;;;;;0.60;0.60;;;;;;;23.36;57.40;95194.00;5091982;28;20441;-56
2023/08/23 03:08:02;;;;;;;1.40;1.30;;;;;;;23.60;57.45;95152.41;5092484;28;20441;-56
2023/08/23 03:10:30;;;;;;;0.50;0.40;;;;;;;26.06;56.48;95510.72;5092555;28;20440;-56
2023/08/23 03:12:58;;;;;;;0.50;0.30;;;;;;;22.30;56.62;95010.47;5091776;28;20836;-56
2023/08/23 03:15:27;;;;;;;0.70;0.40;;;;;;;25.08;57.49;95391.84;5092129;28;20441;-59
2023/08/23 03:17:55;;;;;;;0.70;0.60;;;;;;;25.49;59.20;95523.28;5092729;28;20445;-56
2023/08/23 03:20:24;;;;;;;0.50;0.40;;;;;;;25.54;59.42;95522.19;5092060;28;20479;-56
2023/08/23 03:22:54;;;;;;;0.70;0.30;;;;;;;25.79;57.83;95515.28;5091827;28;20440;-56
2023/08/23 03:25:22;;;;;;;4.20;0.90;;;;;;;25.37;60.31;95525.31;5092394;28;20437;-56
2023/08/23 03:27:52;;;;;;;0.57;0.40;;;;;;;25.10;60.62;95500.75;5086760;28;20874;-56
2023/08/23 03:30:21;;;;;;;0.50;0.43;;;;;;;25.55;59.27;95529.19;5088013;28;20456;-56
2023/08/23 03:32:49;;;;;;;0.57;0.57;;;;;;;24.17;59.17;95328.41;5092200;28;20975;-56
2023/08/23 03:35:17;;;;;;;0.70;0.60;;;;;;;25.46;60.43;95528.63;5091715;28;20440;-56
2023/08/23 03:37:46;;;;;;;4.57;0.50;;;;;;;25.47;60.58;95522.84;5092166;28;20445;-56
2023/08/23 03:40:16;;;;;;;0.60;0.47;;;;;;;25.10;60.62;95470.91;5090377;28;20437;-56
2023/08/23 03:42:44;;;;;;;0.40;0.30;;;;;;;25.53;60.20;95523.31;5092485;28;20452;-56
2023/08/23 03:45:13;;;;;;;0.40;0.30;;;;;;;25.43;60.13;95521.16;5091554;28;20860;-56
2023/08/23 03:47:41;;;;;;;0.43;0.37;;;;;;;24.89;60.18;95437.19;5092112;28;20822;-56
2023/08/23 03:50:11;;;;;;;0.50;0.50;;;;;;;25.51;60.06;95525.63;5091390;28;20464;-56
2023/08/23 03:52:39;;;;;;;1.00;0.67;;;;;;;25.27;60.74;95524.72;5091066;28;20441;-56
2023/08/23 03:55:08;;;;;;;0.70;0.63;;;;;;;25.39;60.34;95523.03;5091077;28;20569;-56
2023/08/23 03:57:38;;;;;;;0.87;0.83;;;;;;;25.24;61.40;95525.47;5098203;28;20452;-56
2023/08/23 04:00:08;;;;;;;0.53;0.40;;;;;;;25.21;61.23;95528.09;5086579;28;20443;-56
2023/08/23 04:02:36;;;;;;;0.50;0.40;;;;;;;25.30;60.67;95523.22;5111913;28;20443;-56
2023/08/23 04:05:11;;;;;;;0.40;0.30;;;;;;;25.37;59.89;95503.63;5112045;28;20472;-56
2023/08/23 04:07:40;;;;;;;0.90;0.70;;;;;;;25.43;60.50;95526.59;5111719;28;20456;-56
2023/08/23 04:10:10;;;;;;;3.70;0.50;;;;;;;25.42;60.29;95525.03;5111569;28;20500;-54
2023/08/23 04:12:39;;;;;;;0.60;0.50;;;;;;;25.53;60.74;95526.03;5112042;28;20468;-55
2023/08/23 04:15:08;;;;;;;0.60;0.60;;;;;;;25.64;60.58;95524.31;5111783;28;20440;-55
2023/08/23 04:17:37;;;;;;;0.60;0.53;;;;;;;25.71;60.21;95533.38;5111677;28;20814;-55
2023/08/23 04:20:06;;;;;;;2.80;0.53;;;;;;;25.74;60.29;95527.22;5111666;28;20444;-55
2023/08/23 04:22:34;;;;;;;0.40;0.30;;;;;;;25.79;59.56;95535.09;5111278;28;20958;-54
2023/08/23 04:25:03;;;;;;;0.73;0.40;;;;;;;25.84;59.89;95526.63;5111814;28;20475;-54
2023/08/23 04:27:31;;;;;;;0.90;0.50;;;;;;;25.87;59.96;95525.13;5111603;28;20531;-54
2023/08/23 04:30:01;;;;;;;0.50;0.40;;;;;;;25.76;60.09;95540.44;5111195;28;20504;-55
2023/08/23 04:32:29;;;;;;;0.80;0.80;;;;;;;25.36;61.57;95535.38;5084547;28;20435;-55
2023/08/23 04:34:58;;;;;;;0.50;0.40;;;;;;;25.18;62.96;95536.94;5111141;28;20444;-55
2023/08/23 04:37:26;;;;;;;0.70;0.70;;;;;;;24.87;64.48;95543.25;5111713;28;20439;-55
2023/08/23 04:39:54;;;;;;;1.17;1.00;;;;;;;24.99;64.18;95543.16;5111392;28;20443;-55
2023/08/23 04:42:23;;;;;;;1.17;0.67;;;;;;;24.68;64.53;95502.56;5110365;28;21010;-55
2023/08/23 04:44:51;;;;;;;0.60;0.50;;;;;;;25.24;63.30;95535.53;5110696;28;20907;-55
2023/08/23 04:47:20;;;;;;;1.67;0.50;;;;;;;25.58;61.86;95531.97;5111484;28;20445;-54
2023/08/23 04:49:51;;;;;;;0.70;0.67;;;;;;;25.75;61.49;95536.16;5111243;28;20432;-55
2023/08/23 04:52:20;;;;;;;0.50;0.50;;;;;;;25.82;61.68;95547.16;5110470;28;20832;-54
2023/08/23 04:54:48;;;;;;;0.70;0.50;;;;;;;25.58;62.96;95542.03;5111639;28;20853;-55
2023/08/23 04:57:16;;;;;;;1.47;1.00;;;;;;;25.23;65.59;95542.09;5111470;28;20475;-55
2023/08/23 04:59:45;;;;;;;0.60;0.50;;;;;;;25.11;66.38;95536.81;5111629;28;20444;-55
2023/08/23 05:02:13;;;;;;;1.27;1.17;;;;;;;25.15;65.97;95545.78;5111608;28;20471;-55
2023/08/23 05:04:42;;;;;;;0.83;0.80;;;;;;;24.50;68.44;95548.22;5111082;28;20947;-55
2023/08/23 05:07:11;;;;;;;1.20;1.10;;;;;;;24.47;70.39;95550.84;5111996;28;20431;-55
2023/08/23 05:09:39;;;;;;;1.20;0.90;;;;;;;24.74;70.17;95549.94;5111213;28;20439;-55
2023/08/23 05:12:08;;;;;;;0.93;0.93;;;;;;;25.04;69.24;95545.59;5111500;28;20442;-54
2023/08/23 05:14:36;;;;;;;1.13;1.03;;;;;;;25.13;68.65;95553.50;5110832;28;20451;-54
2023/08/23 05:17:05;;;;;;;0.87;0.83;;;;;;;25.16;68.45;95534.59;5110987;28;20440;-54
2023/08/23 05:19:33;;;;;;;2.60;1.20;;;;;;;25.14;67.90;95546.94;5111036;28;20446;-54
2023/08/23 05:22:05;;;;;;;0.50;0.47;;;;;;;25.49;66.09;95533.34;5110843;28;21011;-55
2023/08/23 05:24:34;;;;;;;3.13;0.63;;;;;;;25.55;64.45;95545.47;5111474;28;20463;-54
2023/08/23 05:27:03;;;;;;;1.43;1.33;;;;;;;25.62;65.07;95546.41;5110918;28;20485;-54
2023/08/23 05:29:31;;;;;;;1.00;0.57;;;;;;;25.74;65.87;95542.72;5112182;28;20439;-54
2023/08/23 05:31:59;;;;;;;0.70;0.60;;;;;;;25.88;65.08;95537.56;5114389;28;20870;-53
2023/08/23 05:34:28;;;;;;;2.10;1.90;;;;;;;25.99;64.70;95519.50;5114438;28;20542;-53
2023/08/23 05:36:56;;;;;;;0.50;0.40;;;;;;;26.44;62.75;95529.59;5114334;28;20957;-53
2023/08/23 05:39:26;;;;;;;0.50;0.37;;;;;;;26.80;61.72;95533.66;5114861;28;20439;-54
2023/08/23 05:41:54;;;;;;;0.50;0.47;;;;;;;27.05;60.76;95526.63;5114579;28;20949;-54
2023/08/23 05:44:22;;;;;;;0.60;0.50;;;;;;;27.30;59.70;95533.16;5114518;28;20431;-54
2023/08/23 05:46:50;;;;;;;0.63;0.50;;;;;;;27.43;58.48;95523.63;5114313;28;20500;-53
2023/08/23 05:49:19;;;;;;;0.70;0.40;;;;;;;27.51;59.10;95517.09;5114342;28;20442;-53
2023/08/23 05:51:47;;;;;;;5.07;1.03;;;;;;;27.31;59.55;95520.34;5113881;28;20435;-53
2023/08/23 05:54:15;;;;;;;1.13;1.03;;;;;;;27.51;58.48;95519.03;5114209;28;20436;-54
2023/08/23 05:56:45;;;;;;;0.77;0.70;;;;;;;27.68;58.87;95519.22;5114037;28;20475;-54
2023/08/23 05:59:13;;;;;;;0.90;0.83;;;;;;;27.69;57.13;95520.03;5113950;28;21026;-54
2023/08/23 06:01:42;;;;;;;1.10;1.10;;;;;;;28.23;55.72;95516.69;5114203;28;20484;-54
2023/08/23 06:04:10;;;;;;;0.50;0.50;;;;;;;28.09;55.64;95441.03;5113732;28;20447;-54
2023/08/23 06:06:39;;;;;;;2.10;1.97;;;;;;;28.41;55.76;95509.44;5113588;28;20964;-53
2023/08/23 06:09:08;;;;;;;2.90;1.80;;;;;;;28.20;56.42;95501.84;5113902;28;20873;-53
2023/08/23 06:11:37;;;;;;;2.97;1.27;;;;;;;28.26;55.97;95494.88;5113786;28;20515;-53
2023/08/23 06:14:19;;;;;;;0.90;0.90;;;;;;;28.60;55.67;95500.97;5113248;28;20526;-53
2023/08/23 06:16:48;;;;;;;1.27;1.10;;;;;;;28.30;53.76;95501.16;5113828;28;20870;-53
2023/08/23 06:19:17;;;;;;;0.93;0.80;;;;;;;28.44;54.04;95495.00;5113577;28;20498;-53
2023/08/23 06:21:46;;;;;;;5.53;1.17;;;;;;;28.63;53.76;95504.91;5113899;28;20534;-53
2023/08/23 06:24:14;;;;;;;2.00;1.90;;;;;;;28.22;53.45;95485.13;5113840;28;20439;-53
2023/08/23 06:26:44;;;;;;;1.70;1.60;;;;;;;28.71;53.15;95501.09;5113344;28;20475;-53
2023/08/23 06:29:12;;;;;;;1.87;1.77;;;;;;;28.78;53.26;95493.72;5113752;28;20447;-53
2023/08/23 06:31:42;;;;;;;1.33;1.23;;;;;;;29.14;53.03;95502.88;5112997;28;20546;-53
2023/08/23 06:34:10;;;;;;;1.50;1.40;;;;;;;28.95;52.21;95493.03;5114034;28;20435;-54
2023/08/23 06:36:38;;;;;;;2.53;2.43;;;;;;;29.08;54.74;95500.88;5113528;28;20830;-54
2023/08/23 06:39:07;;;;;;;1.20;1.13;;;;;;;29.54;54.69;95497.19;5113278;28;20443;-54
2023/08/23 06:41:50;;;;;;;1.27;1.17;;;;;;;29.92;54.24;95493.00;5112414;28;21114;-55
2023/08/23 06:44:19;;;;;;;1.00;0.90;;;;;;;30.41;53.10;95491.50;5113224;28;20496;-55
2023/08/23 06:46:48;;;;;;;2.60;1.40;;;;;;;30.59;52.78;95498.50;5113010;28;20532;-56
2023/08/23 06:49:17;;;;;;;0.73;0.73;;;;;;;30.37;53.16;95488.75;5113763;28;20439;-56
2023/08/23 06:51:45;;;;;;;0.90;0.90;;;;;;;30.56;52.73;95491.06;5113107;28;20431;-56
2023/08/23 06:54:13;;;;;;;0.63;0.60;;;;;;;31.24;51.27;95487.03;5113601;28;20456;-56
2023/08/23 06:56:42;;;;;;;1.47;0.73;;;;;;;31.61;50.63;95481.00;5112818;28;20515;-56
2023/08/23 06:59:10;;;;;;;0.57;0.50;;;;;;;32.03;48.44;95485.44;5113140;28;20466;-56
2023/08/23 07:01:38;;;;;;;0.50;0.40;;;;;;;32.36;47.70;95478.56;5112988;28;20435;-56
2023/08/23 07:04:08;;;;;;;1.70;0.93;;;;;;;32.73;46.40;95477.84;5113554;28;20465;-55
2023/08/23 07:06:37;;;;;;;0.87;0.87;;;;;;;32.80;46.52;95469.53;5085882;28;20481;-55
2023/08/23 07:09:06;;;;;;;0.80;0.80;;;;;;;32.88;45.33;95476.50;5113192;28;20807;-55
2023/08/23 07:11:34;;;;;;;1.27;1.27;;;;;;;32.20;45.98;95473.59;5113728;28;20869;-55
2023/08/23 07:14:02;;;;;;;1.53;1.43;;;;;;;32.16;46.80;95475.56;5113008;28;20467;-54
2023/08/23 07:16:31;;;;;;;1.47;1.37;;;;;;;32.77;45.94;95473.06;5104839;28;20440;-54
2023/08/23 07:19:01;;;;;;;2.37;1.43;;;;;;;32.89;45.18;95476.06;5107429;28;20521;-54
2023/08/23 07:21:31;;;;;;;1.97;0.93;;;;;;;33.27;45.10;95465.84;5112559;28;20470;-59
2023/08/23 07:23:59;;;;;;;0.67;0.67;;;;;;;34.03;44.87;95467.22;5112813;28;20518;-56
2023/08/23 07:26:28;;;;;;;1.33;1.13;;;;;;;33.85;43.92;95462.72;5112419;28;20843;-55
2023/08/23 07:28:56;;;;;;;1.07;0.93;;;;;;;34.31;43.89;95459.28;5112265;28;20836;-53
2023/08/23 07:31:24;;;;;;;0.47;0.47;;;;;;;34.42;43.44;95451.63;5112971;28;20522;-52
2023/08/23 07:33:52;;;;;;;0.73;0.73;;;;;;;34.65;43.33;95450.88;5112339;28;20431;-52
2023/08/23 07:36:21;;;;;;;0.60;0.60;;;;;;;34.49;42.60;95426.72;5112753;28;20782;-52
2023/08/23 07:38:51;;;;;;;0.80;0.80;;;;;;;34.48;42.44;95451.94;5112514;28;20506;-52
2023/08/23 07:41:19;;;;;;;1.60;1.13;;;;;;;33.72;43.99;95448.03;5112802;28;20442;-53
2023/08/23 07:43:47;;;;;;;1.17;1.07;;;;;;;33.70;44.00;95446.88;5112070;28;20442;-53
2023/08/23 07:46:16;;;;;;;1.47;1.40;;;;;;;34.38;42.69;95437.16;5111635;28;20481;-53
2023/08/23 07:48:44;;;;;;;1.00;1.00;;;;;;;35.01;42.22;95440.75;5112533;28;21001;-53
2023/08/23 07:51:12;;;;;;;1.43;1.33;;;;;;;35.00;41.72;95439.19;5097863;28;20504;-52
2023/08/23 07:53:42;;;;;;;2.00;1.90;;;;;;;34.42;41.72;95437.88;5111885;28;20431;-52
2023/08/23 07:56:12;;;;;;;1.37;1.27;;;;;;;34.27;41.96;95433.03;5111146;28;21078;-52
2023/08/23 07:58:43;;;;;;;1.23;1.20;;;;;;;34.88;42.04;95439.03;5112220;28;20439;-53
2023/08/23 08:01:11;;;;;;;1.00;1.00;;;;;;;35.15;40.20;95430.66;5112141;28;20864;-52
2023/08/23 08:03:39;;;;;;;1.67;1.57;;;;;;;34.81;41.31;95437.16;5112330;28;20246;-53
2023/08/23 08:06:08;;;;;;;1.23;1.23;;;;;;;34.92;40.69;95436.97;5111994;28;20519;-53
2023/08/23 08:08:39;;;;;;;1.00;1.00;;;;;;;35.46;40.35;95429.22;5112458;28;20940;-54
2023/08/23 08:11:07;;;;;;;1.50;1.40;;;;;;;35.47;39.82;95428.75;5111683;28;20224;-52
2023/08/23 08:13:37;;;;;;;1.47;1.33;;;;;;;36.18;39.83;95425.19;5112020;28;20663;-52
2023/08/23 08:16:09;;;;;;;0.70;0.70;;;;;;;36.46;38.32;95392.56;5111651;28;20193;-52
2023/08/23 08:18:38;;;;;;;0.73;0.73;;;;;;;36.94;38.22;95414.56;5112243;28;20228;-52
2023/08/23 08:21:07;;;;;;;0.90;0.90;;;;;;;36.68;36.98;95408.16;5111840;28;20274;-54
2023/08/23 08:23:35;;;;;;;0.77;0.60;;;;;;;36.53;36.46;95406.22;5111747;28;20193;-53
2023/08/23 08:26:05;;;;;;;0.90;0.90;;;;;;;36.91;36.23;95390.56;5111899;28;20208;-53
2023/08/23 08:28:33;;;;;;;2.28;0.98;;;;;;;37.09;35.45;95415.72;5110958;28;20205;-53
2023/08/23 08:31:03;;;;;;;1.60;1.50;;;;;;;36.33;35.19;95414.59;5112068;28;20272;-53
2023/08/23 08:33:31;;;;;;;1.92;1.83;;;;;;;37.33;35.30;95403.19;5111764;28;20318;-54
2023/08/23 08:36:00;;;;;;;0.60;0.40;;;;;;;37.59;33.33;95400.47;5112073;28;20197;-54
2023/08/23 08:38:28;;;;;;;0.60;0.60;;;;;;;38.73;32.73;95394.38;5111100;28;20198;-54
2023/08/23 08:40:57;;;;;;;0.40;0.40;;;;;;;38.50;31.90;95369.81;5111948;28;20275;-53
2023/08/23 08:43:26;;;;;;;0.75;0.75;;;;;;;38.87;29.09;95395.06;5111158;28;20203;-54
2023/08/23 08:45:57;;;;;;;0.65;0.60;;;;;;;39.05;29.19;95384.09;5111912;28;20295;-54
2023/08/23 08:48:27;;;;;;;0.60;0.50;;;;;;;39.35;30.10;95378.63;5111786;28;20193;-54
2023/08/23 08:51:00;;;;;;;0.40;0.35;;;;;;;39.86;30.84;95373.47;5112275;28;20250;-54
2023/08/23 08:53:32;;;;;;;0.80;0.80;;;;;;;39.76;29.35;95377.44;5111356;28;20200;-54
2023/08/23 08:56:01;;;;;;;0.55;0.55;;;;;;;40.28;28.62;95368.19;5111570;28;20228;-54
2023/08/23 08:58:31;;;;;;;0.45;0.45;;;;;;;40.74;28.03;95357.09;5111834;28;20277;-53
2023/08/23 09:01:02;;;;;;;0.50;0.50;;;;;;;40.69;28.85;95358.50;5111641;28;20201;-53
2023/08/23 09:03:32;;;;;;;0.38;0.38;;;;;;;40.12;28.66;95359.38;5110991;28;20689;-54
2023/08/23 09:06:00;;;;;;;1.25;1.15;;;;;;;38.94;27.99;95369.88;5114928;28;20796;-54
2023/08/23 09:08:29;;;;;;;0.70;0.70;;;;;;;39.23;28.58;95359.28;5114938;28;20280;-54
2023/08/23 09:10:57;;;;;;;0.85;0.85;;;;;;;39.33;28.48;95350.56;5112422;28;20741;-53
2023/08/23 09:13:26;;;;;;;0.85;0.85;;;;;;;39.90;27.84;95349.09;5105589;28;20193;-54
2023/08/23 09:15:55;;;;;;;0.50;0.50;;;;;;;40.14;27.29;95348.56;5115380;28;20280;-54
2023/08/23 09:18:24;;;;;;;0.30;0.30;;;;;;;40.96;26.54;95354.97;5115449;28;20197;-54
2023/08/23 09:20:54;;;;;;;0.30;0.30;;;;;;;41.28;26.69;95347.94;5115382;28;20307;-54
2023/08/23 09:23:22;;;;;;;1.05;0.98;;;;;;;41.19;26.78;95338.38;5115370;28;20662;-54
2023/08/23 09:25:50;;;;;;;0.93;0.50;;;;;;;41.80;25.47;95344.69;5113746;28;20914;-54
2023/08/23 09:28:20;;;;;;;0.50;0.30;;;;;;;41.19;25.99;95341.16;5114359;28;20208;-54
2023/08/23 09:30:49;;;;;;;0.40;0.40;;;;;;;40.27;28.02;95313.88;5114375;28;20193;-53
2023/08/23 09:33:18;;;;;;;0.60;0.60;;;;;;;41.26;26.92;95336.50;5115109;28;20193;-53
2023/08/23 09:35:48;;;;;;;0.70;0.70;;;;;;;41.05;26.42;95327.91;5114932;28;20242;-54
2023/08/23 09:38:22;;;;;;;0.63;0.60;;;;;;;41.28;27.03;95320.88;5115247;28;20200;-55
2023/08/23 09:40:50;;;;;;;0.30;0.30;;;;;;;41.73;25.54;95323.53;5114869;28;20197;-56
2023/08/23 09:43:19;;;;;;;0.70;0.70;;;;;;;41.58;25.45;95275.34;5114694;28;20278;-57
2023/08/23 09:45:48;;;;;;;0.40;0.40;;;;;;;42.75;25.35;95320.38;5114763;28;20222;-55
2023/08/23 09:48:19;;;;;;;0.82;0.55;;;;;;;41.86;25.46;95322.53;5114443;28;20216;-55
2023/08/23 09:50:52;;;;;;;3.08;1.00;;;;;;;41.73;26.02;95308.84;5114803;28;20197;-55
2023/08/23 09:53:28;;;;;;;1.02;0.60;;;;;;;40.07;26.32;95312.78;5114842;28;20249;-55
2023/08/23 09:55:57;;;;;;;0.82;0.68;;;;;;;39.39;26.96;95281.41;5113982;28;20220;-55
2023/08/23 09:58:26;;;;;;;0.50;0.50;;;;;;;39.71;27.35;95299.56;5114699;28;20193;-55
2023/08/23 10:00:58;;;;;;;0.30;0.30;;;;;;;39.50;27.84;95303.16;5114857;28;20200;-55
2023/08/23 10:03:26;;;;;;;0.30;0.30;;;;;;;38.82;28.65;95287.56;5088270;28;20730;-55
2023/08/23 10:05:55;;;;;;;0.65;0.65;;;;;;;39.12;27.97;95295.13;5113692;28;20193;-54
2023/08/23 10:08:26;;;;;;;0.73;0.50;;;;;;;39.96;26.60;95291.75;5114632;28;20286;-54
2023/08/23 10:10:55;;;;;;;0.50;0.50;;;;;;;39.56;26.94;95291.03;5114068;28;20222;-54
2023/08/23 10:13:24;;;;;;;0.30;0.30;;;;;;;40.72;26.53;95290.09;5114453;28;20217;-55
2023/08/23 10:15:55;;;;;;;0.68;0.68;;;;;;;39.78;27.06;95286.16;5113696;28;20239;-55
2023/08/23 10:18:24;;;;;;;0.50;0.43;;;;;;;39.14;26.71;95292.69;5114181;28;20204;-55
2023/08/23 10:20:53;;;;;;;0.47;0.47;;;;;;;40.45;25.45;95290.88;5113148;28;20250;-55
2023/08/23 10:23:23;;;;;;;0.50;0.50;;;;;;;41.36;25.68;95283.19;5114311;28;20223;-55
2023/08/23 10:25:52;;;;;;;0.50;0.40;;;;;;;42.15;23.92;95281.66;5113756;28;20193;-55
2023/08/23 10:28:21;;;;;;;0.50;0.50;;;;;;;42.42;22.62;95289.06;5113753;28;20213;-55
2023/08/23 10:30:51;;;;;;;0.40;0.30;;;;;;;42.63;22.84;95282.41;5113758;28;20200;-55
2023/08/23 10:33:31;;;;;;;0.40;0.40;;;;;;;41.75;24.54;95287.63;5114609;28;20193;-55
2023/08/23 10:36:00;;;;;;;0.40;0.30;;;;;;;42.51;25.26;95274.25;5106014;28;20232;-55
2023/08/23 10:38:29;;;;;;;0.47;0.47;;;;;;;42.90;23.70;95279.34;5108870;28;20242;-55
2023/08/23 10:41:01;;;;;;;1.23;0.90;;;;;;;43.40;22.12;95271.06;5113734;28;20200;-55
2023/08/23 10:43:33;;;;;;;3.25;0.75;;;;;;;42.75;24.57;95272.97;5113035;28;20192;-60
2023/08/23 10:46:06;;;;;;;0.40;0.40;;;;;;;43.24;24.96;95269.50;5113861;28;20658;-60
2023/08/23 10:48:35;;;;;;;0.73;0.73;;;;;;;42.95;23.78;95269.53;5113747;28;20217;-60
2023/08/23 10:51:03;;;;;;;0.60;0.60;;;;;;;42.73;22.42;95269.91;5113897;28;20611;-57
2023/08/23 10:53:32;;;;;;;0.40;0.40;;;;;;;43.30;22.40;95255.66;5113260;28;20189;-60
2023/08/23 10:56:03;;;;;;;1.77;1.25;;;;;;;41.82;23.00;95257.91;5113708;28;20286;-59
2023/08/23 10:58:33;;;;;;;0.50;0.50;;;;;;;41.45;23.52;95265.66;5087596;28;20232;-59
2023/08/23 11:01:02;;;;;;;0.57;0.52;;;;;;;41.96;24.03;95262.75;5113756;28;20217;-57
2023/08/23 11:03:32;;;;;;;0.38;0.35;;;;;;;42.85;23.89;95240.19;5112748;28;20283;-58
2023/08/23 11:06:01;;;;;;;0.30;0.30;;;;;;;43.86;22.27;95249.66;5112872;28;20197;-58
2023/08/23 11:08:31;;;;;;;0.50;0.50;;;;;;;43.41;21.63;95251.03;5113647;28;20296;-58
2023/08/23 11:10:59;;;;;;;0.75;0.63;;;;;;;41.80;22.69;95244.44;5113206;28;20189;-60
2023/08/23 11:13:29;;;;;;;0.95;0.95;;;;;;;40.75;23.31;95242.69;5113402;28;20193;-59
2023/08/23 11:15:58;;;;;;;0.30;0.30;;;;;;;41.70;24.02;95238.19;5112987;28;20228;-59
2023/08/23 11:18:26;;;;;;;0.90;0.50;;;;;;;42.49;23.69;95230.16;5112903;28;20254;-60
2023/08/23 11:20:55;;;;;;;0.50;0.32;;;;;;;42.57;22.35;95228.56;5113372;28;20197;-59
2023/08/23 11:23:23;;;;;;;0.47;0.47;;;;;;;43.89;22.53;95225.56;5112953;28;20201;-59
2023/08/23 11:25:53;;;;;;;0.40;0.40;;;;;;;43.64;21.62;95223.44;5112591;28;20193;-59
2023/08/23 11:28:21;;;;;;;0.45;0.45;;;;;;;43.55;21.18;95213.94;5112514;28;20216;-59
2023/08/23 11:30:51;;;;;;;0.70;0.70;;;;;;;42.63;22.56;95221.06;5086473;28;20197;-58
2023/08/23 11:33:20;;;;;;;0.40;0.40;;;;;;;41.93;22.42;95221.94;5112366;28;20275;-57
2023/08/23 11:35:48;;;;;;;0.57;0.57;;;;;;;41.74;22.51;95212.97;5112640;28;20658;-58
2023/08/23 11:38:16;;;;;;;0.52;0.45;;;;;;;43.04;22.23;95213.66;5111880;28;20355;-59
2023/08/23 11:40:45;;;;;;;0.40;0.40;;;;;;;42.97;22.05;95194.53;5112021;28;20193;-59
2023/08/23 11:43:18;;;;;;;0.40;0.40;;;;;;;40.69;23.61;95210.44;5110725;28;20289;-59
2023/08/23 11:45:52;;;;;;;0.75;0.75;;;;;;;40.09;23.96;95205.56;5112232;28;20200;-58
2023/08/23 11:48:23;;;;;;;0.90;0.40;;;;;;;39.15;25.06;95205.50;5111847;28;20699;-58
2023/08/23 11:50:51;;;;;;;1.10;0.50;;;;;;;38.85;26.52;95207.06;5112201;28;20233;-58
2023/08/23 11:53:20;;;;;;;0.43;0.43;;;;;;;38.41;25.40;95206.31;5112391;28;20189;-58
2023/08/23 11:55:52;;;;;;;1.40;0.85;;;;;;;39.08;25.14;95205.78;5111833;28;20236;-58
2023/08/23 11:58:20;;;;;;;1.20;0.40;;;;;;;39.49;25.70;95201.75;5111712;28;20632;-59
2023/08/23 12:00:49;;;;;;;0.60;0.40;;;;;;;39.62;25.30;95196.88;5112515;28;20188;-58
2023/08/23 12:03:18;;;;;;;0.30;0.30;;;;;;;39.85;25.54;95205.38;5111906;28;20192;-58